Time;durP1;ratioP1;P1;durP2;ratioP2;P2;SDS_P1;SDS_P2;PMS_P1;PMS_P2;Temp;Humidity;BMP_temperature;BMP_pressure;BME280_temperature;BME280_humidity;BME280_pressure;Samples;Min_cycle;Max_cycle;Signal;HPM_P1;HPM_P2
2022/05/03 00:03:10;;;;;;;4.85;2.20;;;;;;;8.31;84.31;101861.66;10498520;28;20052;-61
2022/05/03 00:08:21;;;;;;;2.92;2.00;;;;;;;8.03;85.51;101855.56;10498521;28;20049;-61
2022/05/03 00:13:29;;;;;;;4.33;2.20;;;;;;;8.17;84.31;101859.47;10498393;28;20040;-61
2022/05/03 00:18:32;;;;;;;3.83;1.73;;;;;;;8.07;85.78;101847.59;10497692;28;20479;-61
2022/05/03 00:23:35;;;;;;;2.60;1.80;;;;;;;7.85;87.88;101844.78;10496860;28;20048;-61
2022/05/03 00:28:39;;;;;;;3.97;2.40;;;;;;;7.70;88.05;101835.66;10496861;28;20060;-61
2022/05/03 00:33:41;;;;;;;2.20;2.03;;;;;;;8.10;85.12;101838.81;10496775;28;20041;-61
2022/05/03 00:38:44;;;;;;;1.88;1.77;;;;;;;7.78;87.50;101838.88;10497868;28;20049;-61
2022/05/03 00:44:55;;;;;;;1.88;1.77;;;;;;;7.68;89.57;101828.75;10496854;28;20398;-61
2022/05/03 00:49:44;;;;;;;2.28;2.08;;;;;;;7.64;89.59;101830.59;10496958;28;20075;-61
2022/05/03 00:54:57;;;;;;;3.08;2.10;;;;;;;7.51;89.95;101837.06;10496413;28;20076;-61
2022/05/03 01:00:20;;;;;;;2.30;1.90;;;;;;;7.47;90.95;101844.09;10497478;28;20049;-61
2022/05/03 01:05:42;;;;;;;5.55;2.10;;;;;;;7.58;92.09;101849.00;10497298;28;20051;-61
2022/05/03 01:11:05;;;;;;;2.05;1.90;;;;;;;7.57;91.76;101850.78;10503732;28;20048;-61
2022/05/03 01:16:32;;;;;;;3.72;2.42;;;;;;;7.13;92.86;101849.34;10502888;28;20059;-61
2022/05/03 01:21:54;;;;;;;5.22;2.78;;;;;;;7.30;92.98;101841.13;10502477;28;20491;-61
2022/05/03 01:27:12;;;;;;;4.30;2.20;;;;;;;7.48;92.84;101843.22;10502861;28;20045;-60
2022/05/03 01:32:19;;;;;;;4.82;2.67;;;;;;;6.91;96.26;101841.25;10502813;28;20048;-61
2022/05/03 01:37:57;;;;;;;4.82;2.25;;;;;;;7.00;96.85;101843.63;10503888;28;20052;-61
2022/05/03 01:43:18;;;;;;;4.57;2.92;;;;;;;6.83;98.68;101839.69;10502960;28;20052;-61
2022/05/03 01:54:17;;;;;;;4.43;2.67;;;;;;;6.92;97.86;101840.38;10503196;28;20048;-60
2022/05/03 01:59:43;;;;;;;4.78;2.78;;;;;;;6.95;96.89;101838.53;10502379;28;20384;-60
2022/05/03 02:04:58;;;;;;;4.38;2.92;;;;;;;6.63;100.00;101834.13;10502728;28;20094;-60
2022/05/03 02:10:05;;;;;;;3.08;2.78;;;;;;;6.83;99.14;101831.88;10502456;28;20044;-60
2022/05/03 02:15:10;;;;;;;4.55;2.72;;;;;;;6.55;100.00;101834.31;10501658;28;20487;-61
2022/05/03 02:20:35;;;;;;;3.70;3.30;;;;;;;6.52;100.00;101847.38;10500753;28;20399;-60
2022/05/03 02:26:15;;;;;;;4.40;3.35;;;;;;;6.60;100.00;101836.81;10500557;28;20052;-61
2022/05/03 02:31:33;;;;;;;5.43;3.55;;;;;;;6.41;100.00;101836.41;10501569;28;20048;-60
2022/05/03 02:37:07;;;;;;;4.75;4.25;;;;;;;6.39;100.00;101836.44;10501438;28;20059;-60
2022/05/03 02:42:11;;;;;;;5.95;3.40;;;;;;;6.46;100.00;101837.16;10491741;28;20049;-60
2022/05/03 02:47:29;;;;;;;6.40;3.40;;;;;;;6.40;100.00;101832.06;10483276;28;20048;-61
2022/05/03 02:53:05;;;;;;;5.95;4.13;;;;;;;6.16;100.00;101823.09;10500082;28;20400;-60
2022/05/03 02:58:36;;;;;;;4.57;3.88;;;;;;;6.19;100.00;101828.22;10499278;28;20052;-61
2022/05/03 03:04:04;;;;;;;6.10;3.40;;;;;;;6.32;100.00;101833.13;10499746;28;20056;-60
2022/05/03 03:09:08;;;;;;;7.55;4.30;;;;;;;6.05;100.00;101832.00;10500123;28;20052;-60
2022/05/03 03:14:30;;;;;;;6.00;4.07;;;;;;;6.02;100.00;101834.66;10499172;28;20045;-60
2022/05/03 03:19:56;;;;;;;4.85;4.10;;;;;;;6.01;100.00;101834.69;10499125;28;20059;-61
2022/05/03 03:24:59;;;;;;;7.78;4.60;;;;;;;5.90;100.00;101838.34;10499497;28;20049;-60
2022/05/03 03:30:03;;;;;;;4.63;3.72;;;;;;;5.99;100.00;101836.47;10497345;28;20049;-60
2022/05/03 03:35:06;;;;;;;6.25;4.63;;;;;;;5.95;100.00;101836.50;10499309;28;20071;-60
2022/05/03 03:40:09;;;;;;;9.35;5.13;;;;;;;5.85;100.00;101829.78;10499112;28;20044;-60
2022/05/03 03:45:13;;;;;;;6.00;4.25;;;;;;;5.77;100.00;101832.53;10498308;28;20475;-60
2022/05/03 03:50:16;;;;;;;5.78;4.65;;;;;;;5.93;100.00;101833.09;10498872;28;20055;-61
2022/05/03 03:55:18;;;;;;;6.32;5.07;;;;;;;5.79;100.00;101840.31;10498709;28;20045;-60
2022/05/03 04:00:21;;;;;;;7.10;4.57;;;;;;;5.51;100.00;101830.44;10496825;28;20492;-61
2022/05/03 04:05:23;;;;;;;5.57;4.97;;;;;;;5.75;100.00;101826.53;10497808;28;20056;-61
2022/05/03 04:10:26;;;;;;;5.50;4.30;;;;;;;5.70;100.00;101824.88;10497285;28;20059;-60
2022/05/03 04:15:28;;;;;;;10.27;4.93;;;;;;;6.25;100.00;101828.06;10497645;28;20483;-61
2022/05/03 04:20:30;;;;;;;7.82;5.28;;;;;;;5.79;100.00;101834.25;10498247;28;20053;-60
2022/05/03 04:25:33;;;;;;;8.70;5.43;;;;;;;5.80;100.00;101838.56;10498080;28;20041;-61
2022/05/03 04:30:35;;;;;;;6.88;5.07;;;;;;;5.82;100.00;101834.19;10496858;28;20044;-60
2022/05/03 04:35:38;;;;;;;7.60;5.38;;;;;;;5.91;100.00;101839.19;10497908;28;20045;-61
2022/05/03 04:40:40;;;;;;;8.55;5.70;;;;;;;6.06;100.00;101838.88;10497823;28;20056;-61
2022/05/03 04:45:42;;;;;;;8.63;5.07;;;;;;;6.02;100.00;101839.84;10505683;28;20047;-61
2022/05/03 04:50:46;;;;;;;7.68;4.90;;;;;;;6.07;100.00;101834.53;10504950;28;20404;-60
2022/05/03 04:55:49;;;;;;;11.48;5.75;;;;;;;6.17;100.00;101848.19;10504691;28;20476;-61
2022/05/03 05:00:51;;;;;;;15.90;5.95;;;;;;;6.45;100.00;101851.88;10504511;28;20048;-60
2022/05/03 05:05:53;;;;;;;17.27;7.15;;;;;;;6.57;100.00;101850.72;10504909;28;20052;-60
2022/05/03 05:10:56;;;;;;;10.63;6.32;;;;;;;6.42;100.00;101864.97;10504170;28;20485;-60
2022/05/03 05:15:58;;;;;;;11.57;5.90;;;;;;;6.66;100.00;101868.75;10503928;28;20513;-61
2022/05/03 05:21:01;;;;;;;13.68;6.97;;;;;;;6.71;100.00;101876.44;10503846;28;20491;-60
2022/05/03 05:26:03;;;;;;;11.35;6.03;;;;;;;7.00;100.00;101873.13;10504143;28;20055;-60
2022/05/03 05:31:06;;;;;;;8.30;6.03;;;;;;;7.27;100.00;101875.06;10502904;28;20062;-61
2022/05/03 05:36:08;;;;;;;11.77;6.40;;;;;;;7.40;100.00;101877.28;10503927;28;20132;-61
2022/05/03 05:41:14;;;;;;;8.55;6.20;;;;;;;7.41;100.00;101881.63;10502182;28;20067;-61
2022/05/03 05:46:17;;;;;;;8.27;6.00;;;;;;;7.77;100.00;101888.47;10502864;28;20476;-61
2022/05/03 05:51:19;;;;;;;12.57;6.70;;;;;;;7.80;100.00;101881.41;10503369;28;20056;-61
2022/05/03 05:56:21;;;;;;;7.03;5.53;;;;;;;8.00;100.00;101885.19;10502000;28;20048;-60
2022/05/03 06:01:26;;;;;;;8.07;6.05;;;;;;;7.97;100.00;101890.50;10503061;28;20051;-61
2022/05/03 06:06:28;;;;;;;10.20;6.35;;;;;;;8.29;97.86;101880.88;10502015;28;20079;-61
2022/05/03 06:11:30;;;;;;;9.68;6.55;;;;;;;8.34;100.00;101881.59;10501933;28;20403;-61
2022/05/03 06:16:33;;;;;;;10.70;6.60;;;;;;;8.67;96.75;101886.66;10502326;28;20052;-61
2022/05/03 06:21:35;;;;;;;9.20;6.78;;;;;;;8.42;92.79;101890.00;10501402;28;20419;-61
2022/05/03 06:26:38;;;;;;;11.40;6.82;;;;;;;8.62;97.80;101891.19;10500857;28;20057;-61
2022/05/03 06:31:42;;;;;;;9.77;6.95;;;;;;;8.84;98.05;101886.13;10501657;28;20060;-61
2022/05/03 06:36:45;;;;;;;9.25;6.45;;;;;;;9.03;93.58;101889.00;10501511;28;20063;-61
2022/05/03 06:41:48;;;;;;;9.90;6.22;;;;;;;9.19;91.06;101892.78;10500347;28;20480;-61
2022/05/03 06:46:50;;;;;;;5.97;5.18;;;;;;;9.35;87.52;101892.28;10500993;28;20048;-61
2022/05/03 06:51:53;;;;;;;7.72;4.85;;;;;;;9.68;79.43;101890.19;10500794;28;20062;-61
2022/05/03 06:56:55;;;;;;;4.55;4.05;;;;;;;9.90;76.05;101885.06;10500655;28;20049;-61
2022/05/03 07:01:57;;;;;;;5.38;4.50;;;;;;;10.09;78.70;101894.84;10500375;28;20045;-61
2022/05/03 07:07:00;;;;;;;5.68;4.97;;;;;;;10.42;75.77;101892.69;10499366;28;20522;-61
2022/05/03 07:12:02;;;;;;;6.63;4.90;;;;;;;10.93;69.69;101886.28;10500058;28;20045;-61
2022/05/03 07:17:05;;;;;;;6.32;4.97;;;;;;;11.88;69.43;101889.16;10499846;28;20052;-61
2022/05/03 07:27:29;;;;;;;7.72;3.78;;;;;;;13.26;61.83;101900.97;10499539;28;20052;-61
2022/05/03 07:32:31;;;;;;;4.38;3.97;;;;;;;13.32;58.50;101901.56;10499338;28;20048;-61
2022/05/03 07:37:33;;;;;;;5.05;4.13;;;;;;;14.03;56.05;101903.06;10499257;28;20056;-61
2022/05/03 07:42:36;;;;;;;5.68;4.45;;;;;;;14.38;58.48;101908.19;10497381;28;20050;-61
2022/05/03 07:47:38;;;;;;;9.50;4.10;;;;;;;13.51;56.49;101911.13;10499008;28;20052;-61
2022/05/03 07:52:41;;;;;;;5.45;3.95;;;;;;;13.60;55.53;101915.06;10498844;28;20055;-61
2022/05/03 07:57:43;;;;;;;6.47;4.18;;;;;;;14.15;57.67;101906.00;10498123;28;20484;-61
2022/05/03 08:02:45;;;;;;;3.60;3.30;;;;;;;13.68;52.43;101911.06;10497902;28;20502;-61
2022/05/03 08:07:48;;;;;;;4.93;4.20;;;;;;;14.66;52.71;101904.06;10498103;28;20064;-61
2022/05/03 08:12:53;;;;;;;4.82;4.32;;;;;;;14.39;53.92;101916.94;10497280;28;20049;-62
2022/05/03 08:17:55;;;;;;;4.93;3.95;;;;;;;16.01;51.83;101916.25;10503069;28;20040;-62
2022/05/03 08:22:59;;;;;;;10.50;3.85;;;;;;;16.56;52.09;101917.19;10506666;28;20076;-62
2022/05/03 08:28:01;;;;;;;5.75;5.20;;;;;;;15.12;54.44;101919.00;10506594;28;20080;-61
2022/05/03 08:33:04;;;;;;;6.47;4.65;;;;;;;16.57;52.44;101912.72;10505667;28;20054;-62
2022/05/03 08:43:30;;;;;;;7.18;4.35;;;;;;;16.99;50.27;101913.53;10505401;28;20063;-62
2022/05/03 08:48:34;;;;;;;9.35;5.20;;;;;;;16.50;52.46;101907.00;10505013;28;20052;-62
2022/05/03 08:53:37;;;;;;;4.60;4.20;;;;;;;17.90;49.66;101907.31;10505490;28;20047;-62
2022/05/03 08:58:39;;;;;;;5.15;4.13;;;;;;;18.57;48.64;101906.91;10505338;28;20049;-62
2022/05/03 09:03:42;;;;;;;6.15;4.55;;;;;;;18.25;49.73;101915.41;10505061;28;20047;-62
2022/05/03 09:08:53;;;;;;;7.78;5.22;;;;;;;16.70;50.89;101913.63;10504941;28;20055;-62
2022/05/03 09:13:55;;;;;;;6.05;4.35;;;;;;;19.06;45.91;101913.03;10504805;28;20051;-62
2022/05/03 09:18:58;;;;;;;5.75;4.40;;;;;;;19.12;45.29;101916.06;10503400;28;20053;-62
2022/05/03 09:24:01;;;;;;;7.80;5.10;;;;;;;16.44;49.09;101913.53;10504287;28;20044;-62
2022/05/03 09:29:07;;;;;;;6.15;5.40;;;;;;;18.89;47.51;101901.88;10504094;28;20055;-62
2022/05/03 09:34:25;;;;;;;6.72;6.10;;;;;;;19.06;45.91;101908.59;10503550;28;20123;-62
2022/05/03 09:39:37;;;;;;;10.88;6.07;;;;;;;17.96;48.49;101906.91;10503783;28;20056;-62
2022/05/03 09:45:00;;;;;;;7.05;5.10;;;;;;;19.25;47.75;101905.34;10502820;28;20053;-62
2022/05/03 09:50:03;;;;;;;6.53;5.50;;;;;;;19.71;43.98;101900.94;10502434;28;20097;-62
2022/05/03 09:55:07;;;;;;;7.03;4.97;;;;;;;21.19;44.64;101909.38;10502570;28;20570;-62
2022/05/03 10:00:11;;;;;;;6.93;5.63;;;;;;;19.17;48.49;101896.28;10501886;28;20044;-62
2022/05/03 10:05:15;;;;;;;6.38;5.78;;;;;;;20.40;46.54;101891.91;10502438;28;20040;-62
2022/05/03 10:10:17;;;;;;;8.25;5.80;;;;;;;22.01;44.25;101890.69;10501998;28;20404;-62
2022/05/03 10:21:03;;;;;;;9.23;5.95;;;;;;;21.77;45.38;101887.50;10501625;28;20059;-62
2022/05/03 10:26:09;;;;;;;6.53;5.90;;;;;;;21.78;40.88;101886.53;10500670;28;20056;-62
2022/05/03 10:31:13;;;;;;;9.52;6.38;;;;;;;20.76;44.31;101882.75;10501661;28;20048;-62
2022/05/03 10:36:34;;;;;;;11.60;5.47;;;;;;;23.04;43.80;101871.63;10501384;28;20101;-62
2022/05/03 10:41:58;;;;;;;7.77;5.83;;;;;;;23.26;42.04;101868.66;10500943;28;20064;-62
2022/05/03 10:47:04;;;;;;;7.03;6.43;;;;;;;22.63;40.93;101863.81;10501021;28;20048;-63
2022/05/03 10:52:17;;;;;;;9.02;5.82;;;;;;;23.54;40.20;101861.50;10500315;28;20414;-62
2022/05/03 10:57:19;;;;;;;8.70;6.57;;;;;;;23.66;40.79;101851.47;10500782;28;20051;-62
2022/05/03 11:02:22;;;;;;;11.07;5.90;;;;;;;21.70;42.66;101852.56;10500453;28;20056;-62
2022/05/03 11:07:25;;;;;;;9.25;6.50;;;;;;;20.90;45.20;101854.13;10515907;28;20045;-62
2022/05/03 11:13:02;;;;;;;12.70;7.78;;;;;;;21.83;43.73;101845.16;10499464;28;20483;-62
2022/05/03 11:18:09;;;;;;;6.90;6.20;;;;;;;21.70;43.43;101839.25;10472630;28;20070;-62
2022/05/03 11:23:12;;;;;;;7.43;6.63;;;;;;;22.86;41.93;101836.81;10497897;28;20499;-62
2022/05/03 11:28:14;;;;;;;9.43;6.35;;;;;;;23.72;43.07;101832.16;10497869;28;20044;-62
2022/05/03 11:33:18;;;;;;;10.93;6.88;;;;;;;25.04;40.92;101830.69;10498268;28;20044;-63
2022/05/03 11:38:24;;;;;;;8.13;6.38;;;;;;;23.51;40.58;101816.38;10499314;28;20059;-62
2022/05/03 11:43:47;;;;;;;6.80;5.60;;;;;;;22.32;43.04;101823.09;10511479;28;20135;-63
2022/05/03 11:49:01;;;;;;;5.80;5.30;;;;;;;24.41;40.84;101815.63;10498976;28;20052;-62
2022/05/03 11:59:41;;;;;;;8.73;6.35;;;;;;;21.90;41.41;101805.47;10465981;22;20407;-67
2022/05/03 12:05:10;;;;;;;8.20;6.75;;;;;;;25.08;37.27;101797.22;10455292;28;20423;-67
2022/05/03 12:10:19;;;;;;;7.03;6.40;;;;;;;23.78;38.76;101784.44;10456450;28;20506;-67
2022/05/03 12:15:25;;;;;;;6.80;6.10;;;;;;;23.26;40.08;101785.81;10457038;28;20076;-67
2022/05/03 12:20:41;;;;;;;7.38;6.47;;;;;;;22.87;40.44;101785.94;10456878;28;20056;-67
2022/05/03 12:25:45;;;;;;;8.57;6.45;;;;;;;24.36;41.68;101775.97;10456755;28;20060;-67
2022/05/03 12:30:58;;;;;;;6.88;5.53;;;;;;;23.54;40.33;101767.13;10456683;28;20056;-67
2022/05/03 12:36:00;;;;;;;5.32;4.82;;;;;;;25.26;39.31;101770.38;10455958;28;20119;-67
2022/05/03 12:41:03;;;;;;;6.43;5.63;;;;;;;25.13;38.06;101759.22;10456509;28;20052;-68
2022/05/03 12:46:06;;;;;;;6.43;5.82;;;;;;;22.24;42.34;101757.94;10456292;28;20068;-67
2022/05/03 12:51:10;;;;;;;6.80;4.63;;;;;;;21.83;44.37;101751.88;10454514;28;20404;-67
2022/05/03 13:01:35;;;;;;;;;;;;;;;23.48;42.71;101747.19;10456149;28;20049;-67
2022/05/03 13:06:38;;;;;;;6.97;5.70;;;;;;;23.03;42.57;101741.75;10463071;28;19921;-67
2022/05/03 13:11:41;;;;;;;7.45;5.65;;;;;;;22.45;43.29;101740.94;10463482;28;20055;-67
2022/05/03 13:16:44;;;;;;;6.85;6.15;;;;;;;21.58;44.82;101739.91;10463386;28;20052;-67
2022/05/03 13:21:47;;;;;;;5.97;5.47;;;;;;;21.09;46.87;101739.72;10463146;28;20045;-67
2022/05/03 13:26:49;;;;;;;5.13;4.63;;;;;;;20.76;49.70;101743.50;10462900;28;20086;-67
2022/05/03 13:31:52;;;;;;;9.18;5.22;;;;;;;19.83;50.97;101740.53;10462784;28;20059;-67
2022/05/03 13:42:16;;;;;;;6.30;5.68;;;;;;;19.62;52.58;101740.47;10462380;28;20049;-67
2022/05/03 13:47:18;;;;;;;8.02;6.03;;;;;;;19.32;51.93;101733.16;10462116;28;20056;-67
2022/05/03 13:52:21;;;;;;;8.00;6.68;;;;;;;18.39;53.71;101742.06;10461348;28;20507;-67
2022/05/03 13:57:23;;;;;;;7.60;6.80;;;;;;;17.99;53.88;101740.59;10461006;28;20418;-67
2022/05/03 14:02:29;;;;;;;9.90;7.53;;;;;;;18.83;56.07;101747.59;10461655;28;20110;-67
2022/05/03 14:07:31;;;;;;;28.77;19.35;;;;;;;17.11;67.20;101756.59;10461372;28;20044;-67
2022/05/03 14:12:35;;;;;;;29.20;18.33;;;;;;;17.50;67.54;101760.03;10460684;28;20061;-67
2022/05/03 14:17:37;;;;;;;26.92;18.77;;;;;;;17.25;70.03;101756.47;10458329;28;20049;-67
2022/05/03 14:22:40;;;;;;;28.90;18.92;;;;;;;17.80;69.87;101762.28;10476214;28;20096;-67
2022/05/03 14:27:43;;;;;;;34.05;19.80;;;;;;;17.42;69.10;101767.69;10460600;28;20049;-67
2022/05/03 14:32:47;;;;;;;36.58;21.10;;;;;;;16.35;72.54;101774.88;10460400;28;20056;-66
2022/05/03 14:37:50;;;;;;;37.63;20.38;;;;;;;15.45;79.83;101771.00;10459351;28;20136;-68
2022/05/03 14:42:52;;;;;;;31.17;18.23;;;;;;;16.18;75.85;101769.88;10457355;28;20049;-64
2022/05/03 14:47:54;;;;;;;34.28;19.63;;;;;;;15.72;79.28;101768.41;10457838;28;20057;-64
2022/05/03 14:52:58;;;;;;;31.05;19.77;;;;;;;16.29;75.02;101774.44;10458911;28;20538;-64
2022/05/03 15:03:22;;;;;;;30.40;19.23;;;;;;;15.93;77.19;101768.00;10458457;28;20045;-64
2022/05/03 15:08:24;;;;;;;25.80;16.23;;;;;;;16.37;75.48;101777.44;10458386;28;20056;-64
2022/05/03 15:13:26;;;;;;;28.70;18.73;;;;;;;16.03;75.13;101784.09;10458782;28;20055;-64
2022/05/03 15:18:31;;;;;;;26.48;18.80;;;;;;;14.98;80.66;101772.97;10458576;28;20060;-64
2022/05/03 15:28:59;;;;;;;26.30;16.65;;;;;;;15.69;80.55;101768.59;10458086;28;20053;-64
2022/05/03 15:34:02;;;;;;;22.52;15.63;;;;;;;15.64;79.21;101775.13;10458134;28;20048;-64
2022/05/03 15:39:04;;;;;;;24.33;16.77;;;;;;;15.01;82.31;101775.44;10457890;28;20060;-63
2022/05/03 15:44:09;;;;;;;22.25;15.75;;;;;;;15.40;78.53;101779.19;10457724;28;20040;-63
2022/05/03 15:49:13;;;;;;;26.27;16.10;;;;;;;15.22;80.40;101778.53;10457539;28;20526;-64
2022/05/03 15:54:15;;;;;;;22.65;16.23;;;;;;;14.94;82.45;101782.00;10456820;28;20184;-63
2022/05/03 15:59:18;;;;;;;23.88;16.02;;;;;;;15.41;80.50;101780.03;10456647;28;20385;-63
2022/05/03 16:04:22;;;;;;;22.60;14.25;;;;;;;15.19;83.10;101772.59;10456536;28;20056;-63
2022/05/03 16:09:25;;;;;;;22.90;14.60;;;;;;;15.34;83.74;101768.16;10456524;28;20559;-63
2022/05/03 16:14:27;;;;;;;23.92;16.52;;;;;;;15.33;80.98;101771.75;10456422;28;20049;-63
2022/05/03 16:19:33;;;;;;;25.08;15.45;;;;;;;14.87;85.99;101764.84;10456889;28;20064;-63
2022/05/03 16:24:37;;;;;;;26.40;14.43;;;;;;;15.51;81.76;101769.75;10456112;28;20500;-63
2022/05/03 16:29:40;;;;;;;26.92;14.93;;;;;;;15.12;81.01;101774.75;10456744;28;20049;-63
2022/05/03 16:34:42;;;;;;;25.10;15.43;;;;;;;15.53;78.92;101767.84;10454962;28;20399;-63
2022/05/03 16:45:06;;;;;;;24.17;14.07;;;;;;;14.81;84.57;101771.34;10464593;28;20053;-63
2022/05/03 16:50:09;;;;;;;22.35;13.75;;;;;;;15.24;80.25;101763.44;10464431;28;20056;-63
2022/05/03 16:55:11;;;;;;;26.60;15.43;;;;;;;14.48;85.06;101771.53;10464185;28;20041;-63
2022/05/03 17:00:14;;;;;;;23.40;15.27;;;;;;;14.40;83.74;101766.69;10463266;28;20060;-63
2022/05/03 17:05:16;;;;;;;19.35;12.68;;;;;;;14.97;82.52;101763.34;10463103;28;20400;-63
2022/05/03 17:10:19;;;;;;;18.90;12.93;;;;;;;14.80;80.88;101761.72;10462645;28;20064;-63
2022/05/03 17:15:21;;;;;;;17.25;11.82;;;;;;;14.16;85.09;101768.97;10463480;28;20041;-63
2022/05/03 17:20:24;;;;;;;23.40;13.60;;;;;;;14.42;83.33;101780.59;10462572;28;20503;-63
2022/05/03 17:25:27;;;;;;;19.98;12.07;;;;;;;14.34;84.30;101779.34;10462351;28;20404;-63
2022/05/03 17:30:29;;;;;;;22.98;12.52;;;;;;;14.01;84.45;101775.94;10463251;28;20056;-63
2022/05/03 17:35:31;;;;;;;15.95;11.45;;;;;;;14.30;83.23;101783.97;10462643;28;20078;-63
2022/05/03 17:40:34;;;;;;;20.15;12.48;;;;;;;14.24;85.18;101782.53;10462498;28;20060;-63
2022/05/03 17:45:37;;;;;;;19.33;11.65;;;;;;;14.48;82.19;101782.91;10461256;28;20045;-63
2022/05/03 17:50:39;;;;;;;18.65;11.75;;;;;;;13.94;84.65;101788.59;10460119;28;20415;-63
2022/05/03 17:55:42;;;;;;;21.15;12.50;;;;;;;13.82;84.40;101786.66;10461311;28;20041;-63
2022/05/03 18:00:44;;;;;;;24.40;10.90;;;;;;;13.96;83.33;101787.66;10461037;28;20053;-63
2022/05/03 18:05:46;;;;;;;17.23;9.55;;;;;;;13.67;85.12;101788.34;10461413;28;20048;-63
2022/05/03 18:10:49;;;;;;;21.98;8.95;;;;;;;14.12;81.67;101784.09;10461371;28;20044;-63
2022/05/03 18:15:51;;;;;;;19.17;8.32;;;;;;;13.99;82.92;101785.72;10461129;28;20052;-63
2022/05/03 18:20:54;;;;;;;16.65;8.38;;;;;;;13.63;82.36;101783.31;10461136;28;20060;-63
2022/05/03 18:25:56;;;;;;;17.30;7.72;;;;;;;13.34;82.57;101786.59;10460397;28;20045;-63
2022/05/03 18:30:58;;;;;;;20.45;8.35;;;;;;;13.47;81.72;101791.22;10460587;28;20067;-63
2022/05/03 18:36:01;;;;;;;13.80;7.35;;;;;;;13.29;83.25;101793.84;10460347;28;20099;-63
2022/05/03 18:41:04;;;;;;;12.95;6.68;;;;;;;13.33;82.71;101800.69;10460128;28;20049;-63
2022/05/03 18:46:06;;;;;;;12.90;7.10;;;;;;;13.31;82.67;101796.41;10459884;28;20041;-63
2022/05/03 18:51:09;;;;;;;11.82;7.07;;;;;;;13.32;82.25;101798.97;10459717;28;20045;-63
2022/05/03 18:56:11;;;;;;;17.13;7.85;;;;;;;13.04;83.20;101796.06;10458652;28;20404;-63
2022/05/03 19:01:14;;;;;;;11.88;6.47;;;;;;;12.88;84.62;101803.88;10458952;28;20065;-63
2022/05/03 19:06:16;;;;;;;13.93;6.10;;;;;;;12.95;82.62;101806.13;10459071;28;20080;-63
2022/05/03 19:11:19;;;;;;;11.60;6.22;;;;;;;12.83;81.89;101812.00;10458936;28;20060;-63
2022/05/03 19:16:21;;;;;;;10.05;4.60;;;;;;;12.35;84.18;101810.88;10458736;28;20049;-63
2022/05/03 19:21:23;;;;;;;9.45;5.05;;;;;;;12.58;80.85;101815.88;10458524;28;20049;-63
2022/05/03 19:31:50;;;;;;;10.48;4.85;;;;;;;12.45;81.14;101825.28;10458305;28;20049;-63
2022/05/03 19:36:55;;;;;;;14.27;5.50;;;;;;;12.19;82.66;101831.81;10457486;28;20067;-63
2022/05/03 19:41:57;;;;;;;7.40;4.10;;;;;;;12.09;84.31;101828.75;10457879;28;20110;-63
2022/05/03 19:47:00;;;;;;;11.38;5.03;;;;;;;11.94;83.79;101826.84;10455829;28;20506;-63
2022/05/03 19:52:03;;;;;;;7.15;4.38;;;;;;;11.78;83.75;101834.53;10457151;28;20048;-63
2022/05/03 19:57:07;;;;;;;10.25;4.07;;;;;;;11.81;82.47;101842.28;10456144;28;20068;-63
2022/05/03 20:02:11;;;;;;;9.07;4.10;;;;;;;11.52;83.81;101847.06;10457202;28;20408;-63
2022/05/03 20:07:24;;;;;;;10.85;4.65;;;;;;;11.37;85.71;101858.25;10457162;28;20041;-63
2022/05/03 20:12:26;;;;;;;9.80;4.60;;;;;;;11.27;86.43;101852.53;10456280;28;20052;-63
2022/05/03 20:17:35;;;;;;;10.20;4.38;;;;;;;11.05;86.55;101863.94;10457047;28;20045;-63
2022/05/03 20:22:38;;;;;;;10.60;3.40;;;;;;;10.66;87.46;101866.44;10456859;28;20095;-63
2022/05/03 20:27:41;;;;;;;11.90;4.10;;;;;;;10.96;85.82;101869.56;10456719;28;20045;-63
2022/05/03 20:32:44;;;;;;;7.90;4.47;;;;;;;10.71;86.28;101870.59;10456029;28;20484;-63
2022/05/03 20:37:46;;;;;;;10.80;3.47;;;;;;;10.89;85.56;101881.22;10456604;28;20049;-63
2022/05/03 20:42:49;;;;;;;11.13;4.03;;;;;;;10.22;87.56;101881.22;10456419;28;20163;-63
2022/05/03 20:53:12;;;;;;;9.27;3.80;;;;;;;10.22;85.76;101891.69;10455900;28;20049;-63
2022/05/03 20:58:14;;;;;;;8.82;4.00;;;;;;;10.32;85.19;101889.59;10455671;28;20053;-63
2022/05/03 21:03:16;;;;;;;15.50;4.10;;;;;;;10.09;84.39;101893.06;10455361;28;20048;-63
2022/05/03 21:08:19;;;;;;;9.57;3.70;;;;;;;10.01;86.11;101892.50;10454150;28;20497;-63
2022/05/03 21:13:21;;;;;;;8.55;3.75;;;;;;;9.81;85.20;101907.16;10455831;28;20056;-63
2022/05/03 21:18:24;;;;;;;7.45;3.60;;;;;;;9.83;85.48;101896.63;10455864;28;20049;-63
2022/05/03 21:23:29;;;;;;;7.88;3.90;;;;;;;9.70;88.97;101901.47;10456132;28;20126;-63
2022/05/03 21:28:35;;;;;;;10.30;4.00;;;;;;;9.74;87.08;101900.44;10461210;28;20051;-63
2022/05/03 21:33:37;;;;;;;10.75;4.07;;;;;;;9.58;88.22;101894.94;10462273;28;20052;-63
2022/05/03 21:38:40;;;;;;;9.30;3.22;;;;;;;9.55;87.37;101900.25;10461996;28;20060;-62
2022/05/03 21:43:42;;;;;;;9.00;4.18;;;;;;;9.16;90.64;101905.09;10462441;28;20052;-63
2022/05/03 21:48:45;;;;;;;7.15;3.78;;;;;;;9.19;90.09;101912.84;10461587;28;20052;-63
2022/05/03 21:53:47;;;;;;;14.00;4.32;;;;;;;9.33;89.43;101909.75;10461429;28;20404;-63
2022/05/03 21:58:51;;;;;;;5.82;3.25;;;;;;;8.89;92.19;101912.94;10461122;28;20132;-63
2022/05/03 22:03:53;;;;;;;12.10;3.88;;;;;;;8.83;92.54;101911.38;10461580;28;20049;-63
2022/05/03 22:08:56;;;;;;;9.57;4.00;;;;;;;8.67;93.26;101907.56;10461459;28;20048;-63
2022/05/03 22:13:58;;;;;;;8.95;3.50;;;;;;;8.62;94.87;101907.69;10461241;28;20057;-62
2022/05/03 22:19:00;;;;;;;8.52;3.55;;;;;;;8.51;94.72;101908.03;10460428;28;20074;-62
2022/05/03 22:24:03;;;;;;;8.88;3.92;;;;;;;8.58;93.19;101908.69;10460117;28;20412;-62
2022/05/03 22:29:06;;;;;;;14.45;5.10;;;;;;;8.52;93.88;101912.38;10460657;28;20053;-62
2022/05/03 22:34:08;;;;;;;6.68;3.33;;;;;;;8.55;93.93;101912.25;10460131;28;20045;-62
2022/05/03 22:39:10;;;;;;;9.18;3.58;;;;;;;8.58;94.55;101913.06;10459398;28;20416;-62
2022/05/03 22:44:13;;;;;;;11.07;4.75;;;;;;;8.21;97.65;101915.00;10459334;28;20381;-62
2022/05/03 22:49:15;;;;;;;9.85;4.15;;;;;;;8.05;98.73;101911.97;10459243;28;20049;-62
2022/05/03 22:54:17;;;;;;;11.27;4.43;;;;;;;7.79;100.00;101917.94;10459818;28;20049;-62
2022/05/03 22:59:20;;;;;;;11.15;4.35;;;;;;;8.24;98.13;101912.31;10458671;28;20564;-62
2022/05/03 23:04:23;;;;;;;11.82;4.30;;;;;;;8.35;96.08;101912.84;10459180;28;20049;-62
2022/05/03 23:09:29;;;;;;;10.95;5.15;;;;;;;8.13;98.65;101910.00;10457996;28;20049;-62
2022/05/03 23:14:31;;;;;;;9.18;4.15;;;;;;;8.17;98.40;101918.63;10458252;28;20480;-62
2022/05/03 23:19:34;;;;;;;9.45;4.13;;;;;;;8.26;98.15;101914.88;10458612;28;20404;-62
2022/05/03 23:24:36;;;;;;;13.15;4.43;;;;;;;8.41;97.98;101916.19;10458622;28;20045;-62
2022/05/03 23:29:39;;;;;;;11.85;4.50;;;;;;;8.36;98.27;101911.09;10458330;28;20044;-62
2022/05/03 23:40:08;;;;;;;11.23;4.23;;;;;;;8.81;95.41;101904.50;10458391;28;20052;-62
2022/05/03 23:50:33;;;;;;;13.38;5.72;;;;;;;8.92;96.80;101912.84;10457692;28;20052;-62
2022/05/03 23:55:35;;;;;;;7.32;4.15;;;;;;;8.89;96.71;101911.19;10456519;28;20041;-62
